createdAt,value
2018-07-03T00:00:56.271Z,0.00
2018-07-03T00:01:56.294Z,0.00
2018-07-03T00:02:56.321Z,0.00
2018-07-03T00:03:56.345Z,0.00
2018-07-03T00:04:56.369Z,0.00
2018-07-03T00:05:56.398Z,0.00
2018-07-03T00:06:56.414Z,0.00
2018-07-03T00:07:56.436Z,0.00
2018-07-03T00:08:56.463Z,0.00
2018-07-03T00:09:56.488Z,0.00
2018-07-03T00:10:56.506Z,0.00
2018-07-03T00:11:56.529Z,0.00
2018-07-03T00:12:56.550Z,0.00
2018-07-03T00:13:56.574Z,0.00
2018-07-03T00:14:56.602Z,0.00
2018-07-03T00:15:56.623Z,0.00
2018-07-03T00:16:56.646Z,0.00
2018-07-03T00:17:56.673Z,0.00
2018-07-03T00:18:56.697Z,0.00
2018-07-03T00:19:56.720Z,0.00
2018-07-03T00:20:56.741Z,0.00
2018-07-03T00:21:56.764Z,0.00
2018-07-03T00:22:56.784Z,0.00
2018-07-03T00:23:56.809Z,0.00
2018-07-03T00:24:56.833Z,0.00
2018-07-03T00:25:56.857Z,0.00
2018-07-03T00:26:56.880Z,0.00
2018-07-03T00:27:56.902Z,0.00
2018-07-03T00:28:56.925Z,0.00
2018-07-03T00:29:56.950Z,0.00
2018-07-03T00:30:56.978Z,0.00
2018-07-03T00:31:56.999Z,0.00
2018-07-03T00:32:57.016Z,0.00
2018-07-03T00:33:57.040Z,0.00
2018-07-03T00:34:57.067Z,0.00
2018-07-03T00:35:57.091Z,0.00
2018-07-03T00:36:57.114Z,0.00
2018-07-03T00:37:57.137Z,0.00
2018-07-03T00:38:57.158Z,0.00
2018-07-03T00:39:57.183Z,0.00
2018-07-03T00:40:57.208Z,0.00
2018-07-03T00:41:57.232Z,0.00
2018-07-03T00:42:57.251Z,0.00
2018-07-03T00:43:57.275Z,0.00
2018-07-03T00:44:57.294Z,0.00
2018-07-03T00:45:57.321Z,0.00
2018-07-03T00:46:57.345Z,0.00
2018-07-03T00:47:57.368Z,0.00
2018-07-03T00:48:57.390Z,0.00
2018-07-03T00:49:57.414Z,0.00
2018-07-03T00:50:57.444Z,0.00
2018-07-03T00:51:57.465Z,0.00
2018-07-03T00:52:57.484Z,0.00
2018-07-03T00:53:57.508Z,0.00
2018-07-03T00:54:57.529Z,0.00
2018-07-03T00:55:57.550Z,0.00
2018-07-03T00:56:57.580Z,0.00
2018-07-03T00:57:57.602Z,0.00
2018-07-03T00:58:57.623Z,0.00
2018-07-03T00:59:57.645Z,0.00
2018-07-03T01:00:57.665Z,0.00
2018-07-03T01:01:57.690Z,0.00
2018-07-03T01:02:57.717Z,0.00
2018-07-03T01:03:57.740Z,0.00
2018-07-03T01:04:57.761Z,0.00
2018-07-03T01:05:57.785Z,0.00
2018-07-03T01:06:57.815Z,0.00
2018-07-03T01:07:57.841Z,0.00
2018-07-03T01:08:57.856Z,0.00
2018-07-03T01:09:57.880Z,0.00
2018-07-03T01:10:57.900Z,0.00
2018-07-03T01:11:57.920Z,0.00
2018-07-03T01:12:57.966Z,0.00
2018-07-03T01:13:57.973Z,0.00
2018-07-03T01:14:57.996Z,0.00
2018-07-03T01:15:58.017Z,0.00
2018-07-03T01:16:58.040Z,0.00
2018-07-03T01:17:58.064Z,0.00
2018-07-03T01:18:58.091Z,0.00
2018-07-03T01:19:58.114Z,0.00
2018-07-03T01:20:58.130Z,0.00
2018-07-03T01:21:58.153Z,0.00
2018-07-03T01:22:58.181Z,0.00
2018-07-03T01:23:58.203Z,0.00
2018-07-03T01:24:58.228Z,0.00
2018-07-03T01:25:58.255Z,0.00
2018-07-03T01:26:58.272Z,0.00
2018-07-03T01:27:58.294Z,0.00
2018-07-03T01:28:58.321Z,0.00
2018-07-03T01:29:58.345Z,0.00
2018-07-03T01:30:58.366Z,0.00
2018-07-03T01:31:58.387Z,0.00
2018-07-03T01:32:58.412Z,0.00
2018-07-03T01:33:58.433Z,0.00
2018-07-03T01:34:58.462Z,0.00
2018-07-03T01:35:58.489Z,0.00
2018-07-03T01:36:58.534Z,0.00
2018-07-03T01:37:58.527Z,0.00
2018-07-03T01:38:58.554Z,0.00
2018-07-03T01:39:58.576Z,0.00
2018-07-03T01:40:58.601Z,0.00
2018-07-03T01:41:58.622Z,0.00
2018-07-03T01:42:58.643Z,0.00
2018-07-03T01:43:58.664Z,0.00
2018-07-03T01:44:58.692Z,0.00
2018-07-03T01:45:58.716Z,0.00
2018-07-03T01:46:58.734Z,0.00
2018-07-03T01:47:58.757Z,0.00
2018-07-03T01:48:58.781Z,0.00
2018-07-03T01:49:58.805Z,0.00
2018-07-03T01:50:58.832Z,0.00
2018-07-03T01:51:58.862Z,0.00
2018-07-03T01:52:58.872Z,0.00
2018-07-03T01:53:58.898Z,0.00
2018-07-03T01:54:58.924Z,0.00
2018-07-03T01:55:58.946Z,0.00
2018-07-03T01:56:58.970Z,0.00
2018-07-03T01:57:58.995Z,0.00
2018-07-03T01:58:59.014Z,0.00
2018-07-03T01:59:59.039Z,0.00
2018-07-03T02:00:59.062Z,0.00
2018-07-03T02:01:59.088Z,0.00
2018-07-03T02:02:59.114Z,0.00
2018-07-03T02:03:59.134Z,0.00
2018-07-03T02:04:59.155Z,0.00
2018-07-03T02:05:59.179Z,0.00
2018-07-03T02:06:59.199Z,0.00
2018-07-03T02:07:59.221Z,0.00
2018-07-03T02:08:59.249Z,0.00
2018-07-03T02:09:59.273Z,0.00
2018-07-03T02:10:59.294Z,0.00
2018-07-03T02:11:59.316Z,0.00
2018-07-03T02:12:59.338Z,0.00
2018-07-03T02:13:59.364Z,0.00
2018-07-03T02:14:59.392Z,0.00
2018-07-03T02:15:59.412Z,0.00
2018-07-03T02:16:59.433Z,0.00
2018-07-03T02:17:59.454Z,0.00
2018-07-03T02:18:59.481Z,0.00
2018-07-03T02:19:59.506Z,0.00
2018-07-03T02:20:59.529Z,0.00
2018-07-03T02:21:59.551Z,0.00
2018-07-03T02:22:59.572Z,0.00
2018-07-03T02:23:59.602Z,0.00
2018-07-03T02:24:59.618Z,0.00
2018-07-03T02:25:59.644Z,0.00
2018-07-03T02:26:59.663Z,0.00
2018-07-03T02:27:59.685Z,0.00
2018-07-03T02:28:59.714Z,0.00
2018-07-03T02:29:59.734Z,0.00
2018-07-03T02:30:59.760Z,0.00
2018-07-03T02:31:59.785Z,0.00
2018-07-03T02:32:59.804Z,0.00
2018-07-03T02:33:59.827Z,0.00
2018-07-03T02:34:59.858Z,0.00
2018-07-03T02:35:59.876Z,0.00
2018-07-03T02:36:59.910Z,0.00
2018-07-03T02:37:59.922Z,0.00
2018-07-03T02:38:59.997Z,0.00
2018-07-03T02:39:59.963Z,0.00
2018-07-03T02:40:59.994Z,0.00
2018-07-03T02:42:00.024Z,0.00
2018-07-03T02:43:00.038Z,0.00
2018-07-03T02:44:00.068Z,0.00
2018-07-03T02:45:00.093Z,0.00
2018-07-03T02:46:00.105Z,0.00
2018-07-03T02:47:00.131Z,0.00
2018-07-03T02:48:00.154Z,0.00
2018-07-03T02:49:00.173Z,0.00
2018-07-03T02:50:00.197Z,0.00
2018-07-03T02:51:00.229Z,0.00
2018-07-03T02:52:00.247Z,0.00
2018-07-03T02:53:00.270Z,0.00
2018-07-03T02:54:00.296Z,0.00
2018-07-03T02:55:00.314Z,0.00
2018-07-03T02:56:00.337Z,0.00
2018-07-03T02:57:00.368Z,0.00
2018-07-03T02:58:00.389Z,0.00
2018-07-03T02:59:00.407Z,0.00
2018-07-03T03:00:00.430Z,5.63
2018-07-03T03:01:00.454Z,5.63
2018-07-03T03:02:00.477Z,5.63
2018-07-03T03:03:00.508Z,5.63
2018-07-03T03:04:00.528Z,5.63
2018-07-03T03:05:00.544Z,5.63
2018-07-03T03:06:00.568Z,5.63
2018-07-03T03:07:00.597Z,5.63
2018-07-03T03:08:00.620Z,5.63
2018-07-03T03:09:00.642Z,5.63
2018-07-03T03:10:00.668Z,11.25
2018-07-03T03:11:00.689Z,11.25
2018-07-03T03:12:00.708Z,11.25
2018-07-03T03:13:00.733Z,11.25
2018-07-03T03:14:00.756Z,11.25
2018-07-03T03:15:00.776Z,16.88
2018-07-03T03:16:00.798Z,16.88
2018-07-03T03:17:00.816Z,22.50
2018-07-03T03:18:00.853Z,28.13
2018-07-03T03:19:00.875Z,39.38
2018-07-03T03:20:00.897Z,50.63
2018-07-03T03:21:00.917Z,50.63
2018-07-03T03:22:00.938Z,56.25
2018-07-03T03:23:00.966Z,61.88
2018-07-03T03:24:00.990Z,67.50
2018-07-03T03:25:01.040Z,78.75
2018-07-03T03:26:01.035Z,78.75
2018-07-03T03:27:01.056Z,84.38
2018-07-03T03:28:01.077Z,90.00
2018-07-03T03:29:01.106Z,101.25
2018-07-03T03:30:01.131Z,106.88
2018-07-03T03:31:01.150Z,118.13
2018-07-03T03:32:01.174Z,123.75
2018-07-03T03:33:01.194Z,135.00
2018-07-03T03:34:01.220Z,140.63
2018-07-03T03:35:01.247Z,157.50
2018-07-03T03:36:01.269Z,163.13
2018-07-03T03:37:01.291Z,174.38
2018-07-03T03:38:01.313Z,191.25
2018-07-03T03:39:01.342Z,219.38
2018-07-03T03:40:01.365Z,241.88
2018-07-03T03:41:01.394Z,253.13
2018-07-03T03:42:01.416Z,236.25
2018-07-03T03:43:01.438Z,202.50
2018-07-03T03:44:01.461Z,180.00
2018-07-03T03:45:01.492Z,174.38
2018-07-03T03:46:01.510Z,168.75
2018-07-03T03:47:01.531Z,168.75
2018-07-03T03:48:01.554Z,163.13
2018-07-03T03:49:01.581Z,168.75
2018-07-03T03:50:01.608Z,168.75
2018-07-03T03:51:01.633Z,168.75
2018-07-03T03:52:01.659Z,163.13
2018-07-03T03:53:01.680Z,163.13
2018-07-03T03:54:01.705Z,151.88
2018-07-03T03:55:01.736Z,146.25
2018-07-03T03:56:01.756Z,151.88
2018-07-03T03:57:01.780Z,140.63
2018-07-03T03:58:01.804Z,135.00
2018-07-03T03:59:01.882Z,129.38
2018-07-03T04:00:01.850Z,129.38
2018-07-03T04:01:01.883Z,129.38
2018-07-03T04:02:01.908Z,129.38
2018-07-03T04:03:01.932Z,129.38
2018-07-03T04:04:01.953Z,135.00
2018-07-03T04:05:01.977Z,146.25
2018-07-03T04:06:02.003Z,163.13
2018-07-03T04:07:02.032Z,185.63
2018-07-03T04:08:02.055Z,196.88
2018-07-03T04:09:02.082Z,219.38
2018-07-03T04:10:02.108Z,230.63
2018-07-03T04:11:02.128Z,241.88
2018-07-03T04:12:02.152Z,247.50
2018-07-03T04:13:02.180Z,258.75
2018-07-03T04:14:02.206Z,258.75
2018-07-03T04:15:02.235Z,270.00
2018-07-03T04:16:02.262Z,270.00
2018-07-03T04:17:02.278Z,275.63
2018-07-03T04:18:02.310Z,286.88
2018-07-03T04:19:02.337Z,292.50
2018-07-03T04:20:02.362Z,303.75
2018-07-03T04:21:02.390Z,309.38
2018-07-03T04:22:02.422Z,315.00
2018-07-03T04:23:02.440Z,320.63
2018-07-03T04:24:02.469Z,326.25
2018-07-03T04:25:02.498Z,331.88
2018-07-03T04:26:02.528Z,343.13
2018-07-03T04:27:02.550Z,343.13
2018-07-03T04:28:02.572Z,354.38
2018-07-03T04:29:02.598Z,365.63
2018-07-03T04:30:02.633Z,371.25
2018-07-03T04:31:02.658Z,382.50
2018-07-03T04:32:02.685Z,388.13
2018-07-03T04:33:02.710Z,393.75
2018-07-03T04:34:02.753Z,399.38
2018-07-03T04:35:02.770Z,405.00
2018-07-03T04:36:02.797Z,410.63
2018-07-03T04:37:02.825Z,421.88
2018-07-03T04:38:02.853Z,416.25
2018-07-03T04:39:02.877Z,416.25
2018-07-03T04:40:02.905Z,421.88
2018-07-03T04:41:02.941Z,433.13
2018-07-03T04:42:02.966Z,433.13
2018-07-03T04:43:02.992Z,427.50
2018-07-03T04:44:03.019Z,433.13
2018-07-03T04:45:03.050Z,444.38
2018-07-03T04:46:03.080Z,455.63
2018-07-03T04:47:03.113Z,461.25
2018-07-03T04:48:03.143Z,461.25
2018-07-03T04:49:03.169Z,483.75
2018-07-03T04:50:03.200Z,495.00
2018-07-03T04:51:03.237Z,517.50
2018-07-03T04:52:03.258Z,528.75
2018-07-03T04:53:03.289Z,540.00
2018-07-03T04:54:03.320Z,556.88
2018-07-03T04:55:03.347Z,590.63
2018-07-03T04:56:03.375Z,585.00
2018-07-03T04:57:03.408Z,562.50
2018-07-03T04:58:03.439Z,573.75
2018-07-03T04:59:03.468Z,562.50
2018-07-03T05:00:03.498Z,545.63
2018-07-03T05:01:03.529Z,568.13
2018-07-03T05:02:03.558Z,573.75
2018-07-03T05:03:03.595Z,585.00
2018-07-03T05:04:03.625Z,590.63
2018-07-03T05:05:03.655Z,601.88
2018-07-03T05:06:03.685Z,613.13
2018-07-03T05:07:03.720Z,607.50
2018-07-03T05:08:03.752Z,613.13
2018-07-03T05:09:03.781Z,590.63
2018-07-03T05:10:03.846Z,613.13
2018-07-03T05:11:03.842Z,618.75
2018-07-03T05:12:03.872Z,618.75
2018-07-03T05:13:03.910Z,624.38
2018-07-03T05:14:03.941Z,635.63
2018-07-03T05:15:03.971Z,630.00
2018-07-03T05:16:04.001Z,641.25
2018-07-03T05:17:04.032Z,646.88
2018-07-03T05:18:04.065Z,635.63
2018-07-03T05:19:04.102Z,658.13
2018-07-03T05:20:04.133Z,641.25
2018-07-03T05:21:04.164Z,652.50
2018-07-03T05:22:04.197Z,646.88
2018-07-03T05:23:04.234Z,652.50
2018-07-03T05:24:04.267Z,675.00
2018-07-03T05:25:04.298Z,680.63
2018-07-03T05:26:04.331Z,725.63
2018-07-03T05:27:04.358Z,759.38
2018-07-03T05:28:04.392Z,731.25
2018-07-03T05:29:04.429Z,714.38
2018-07-03T05:30:04.464Z,613.13
2018-07-03T05:31:04.492Z,523.13
2018-07-03T05:32:04.526Z,500.63
2018-07-03T05:33:04.558Z,478.13
2018-07-03T05:34:04.612Z,461.25
2018-07-03T05:35:04.629Z,433.13
2018-07-03T05:36:04.659Z,393.75
2018-07-03T05:37:04.828Z,360.00
2018-07-03T05:38:04.720Z,343.13
2018-07-03T05:39:04.758Z,320.63
2018-07-03T05:40:04.797Z,303.75
2018-07-03T05:41:04.823Z,286.88
2018-07-03T05:42:04.857Z,275.63
2018-07-03T05:43:04.887Z,270.00
2018-07-03T05:44:05.126Z,264.38
2018-07-03T05:45:04.951Z,258.75
2018-07-03T05:46:04.983Z,258.75
2018-07-03T05:47:05.009Z,258.75
2018-07-03T05:48:05.041Z,253.13
2018-07-03T05:49:05.070Z,258.75
2018-07-03T05:50:05.101Z,258.75
2018-07-03T05:51:05.137Z,258.75
2018-07-03T05:52:05.170Z,258.75
2018-07-03T05:53:05.196Z,264.38
2018-07-03T05:54:05.228Z,264.38
2018-07-03T05:55:05.261Z,264.38
2018-07-03T05:56:05.293Z,270.00
2018-07-03T05:57:05.323Z,275.63
2018-07-03T05:58:05.354Z,275.63
2018-07-03T05:59:05.424Z,286.88
2018-07-03T06:00:05.529Z,292.50
2018-07-03T06:01:05.449Z,298.13
2018-07-03T06:02:05.475Z,320.63
2018-07-03T06:03:05.503Z,500.63
2018-07-03T06:04:05.531Z,776.25
2018-07-03T06:05:05.565Z,945.00
2018-07-03T06:06:05.595Z,961.88
2018-07-03T06:07:05.631Z,978.75
2018-07-03T06:08:05.659Z,995.63
2018-07-03T06:09:05.754Z,1046.25
2018-07-03T06:10:05.716Z,1063.13
2018-07-03T06:11:05.756Z,978.75
2018-07-03T06:12:05.783Z,928.13
2018-07-03T06:13:05.812Z,956.25
2018-07-03T06:14:05.846Z,978.75
2018-07-03T06:15:05.874Z,1006.88
2018-07-03T06:16:05.901Z,995.63
2018-07-03T06:17:05.935Z,973.13
2018-07-03T06:18:05.968Z,978.75
2018-07-03T06:19:05.992Z,1018.13
2018-07-03T06:20:06.149Z,1029.38
2018-07-03T06:21:06.058Z,984.38
2018-07-03T06:22:06.090Z,950.63
2018-07-03T06:23:06.129Z,995.63
2018-07-03T06:24:06.161Z,1051.88
2018-07-03T06:25:06.181Z,1080.00
2018-07-03T06:26:06.215Z,1051.88
2018-07-03T06:27:06.251Z,1035.00
2018-07-03T06:28:06.282Z,1023.75
2018-07-03T06:29:06.465Z,1001.25
2018-07-03T06:30:06.352Z,832.50
2018-07-03T06:31:06.378Z,416.25
2018-07-03T06:32:06.409Z,185.63
2018-07-03T06:33:06.445Z,168.75
2018-07-03T06:34:06.477Z,163.13
2018-07-03T06:35:06.508Z,163.13
2018-07-03T06:36:06.537Z,157.50
2018-07-03T06:37:06.566Z,157.50
2018-07-03T06:38:06.598Z,151.88
2018-07-03T06:39:06.634Z,151.88
2018-07-03T06:40:06.664Z,151.88
2018-07-03T06:41:06.696Z,151.88
2018-07-03T06:42:06.883Z,146.25
2018-07-03T06:43:06.759Z,146.25
2018-07-03T06:44:06.848Z,146.25
2018-07-03T06:45:06.819Z,146.25
2018-07-03T06:46:06.849Z,140.63
2018-07-03T06:47:06.876Z,140.63
2018-07-03T06:48:06.904Z,140.63
2018-07-03T06:49:06.938Z,140.63
2018-07-03T06:50:06.974Z,140.63
2018-07-03T06:51:06.996Z,140.63
2018-07-03T06:52:07.025Z,140.63
2018-07-03T06:53:07.055Z,140.63
2018-07-03T06:54:07.085Z,140.63
2018-07-03T06:55:07.120Z,140.63
2018-07-03T06:56:07.148Z,135.00
2018-07-03T06:57:07.171Z,135.00
2018-07-03T06:58:07.205Z,135.00
2018-07-03T06:59:07.235Z,135.00
2018-07-03T07:00:07.264Z,135.00
2018-07-03T07:01:07.296Z,135.00
2018-07-03T07:02:07.320Z,135.00
2018-07-03T07:03:07.348Z,135.00
2018-07-03T07:04:07.393Z,135.00
2018-07-03T07:05:07.408Z,135.00
2018-07-03T07:06:07.440Z,135.00
2018-07-03T07:07:07.463Z,123.75
2018-07-03T07:08:07.490Z,135.00
2018-07-03T07:09:07.633Z,118.13
2018-07-03T07:10:07.548Z,129.38
2018-07-03T07:11:07.579Z,129.38
2018-07-03T07:12:07.605Z,129.38
2018-07-03T07:13:07.636Z,129.38
2018-07-03T07:14:07.663Z,129.38
2018-07-03T07:15:07.813Z,129.38
2018-07-03T07:16:07.717Z,129.38
2018-07-03T07:17:07.748Z,129.38
2018-07-03T07:18:07.768Z,129.38
2018-07-03T07:19:07.800Z,129.38
2018-07-03T07:20:07.836Z,123.75
2018-07-03T07:21:08.137Z,129.38
2018-07-03T07:22:08.035Z,129.38
2018-07-03T07:23:07.951Z,129.38
2018-07-03T07:24:07.941Z,129.38
2018-07-03T07:25:07.963Z,129.38
2018-07-03T07:26:08.003Z,129.38
2018-07-03T07:27:08.032Z,123.75
2018-07-03T07:28:08.053Z,123.75
2018-07-03T07:29:08.131Z,123.75
2018-07-03T07:30:08.107Z,129.38
2018-07-03T07:31:08.136Z,129.38
2018-07-03T07:32:08.160Z,129.38
2018-07-03T07:33:08.186Z,129.38
2018-07-03T07:34:08.210Z,123.75
2018-07-03T07:35:08.245Z,123.75
2018-07-03T07:36:08.267Z,118.13
2018-07-03T07:37:08.296Z,118.13
2018-07-03T07:38:08.452Z,118.13
2018-07-03T07:39:08.352Z,123.75
2018-07-03T07:40:08.374Z,123.75
2018-07-03T07:41:08.402Z,123.75
2018-07-03T07:42:08.432Z,123.75
2018-07-03T07:43:08.461Z,123.75
2018-07-03T07:44:08.480Z,106.88
2018-07-03T07:45:08.509Z,106.88
2018-07-03T07:46:08.538Z,101.25
2018-07-03T07:47:08.568Z,101.25
2018-07-03T07:48:08.602Z,95.63
2018-07-03T07:49:08.635Z,95.63
2018-07-03T07:50:08.644Z,95.63
2018-07-03T07:51:08.670Z,90.00
2018-07-03T07:52:08.705Z,90.00
2018-07-03T07:53:08.732Z,90.00
2018-07-03T07:54:08.752Z,84.38
2018-07-03T07:55:08.777Z,90.00
2018-07-03T07:56:08.801Z,90.00
2018-07-03T07:57:08.826Z,95.63
2018-07-03T07:58:08.862Z,95.63
2018-07-03T07:59:08.886Z,95.63
2018-07-03T08:00:08.952Z,95.63
2018-07-03T08:01:08.934Z,95.63
2018-07-03T08:02:08.971Z,90.00
2018-07-03T08:03:09.012Z,84.38
2018-07-03T08:04:09.018Z,84.38
2018-07-03T08:05:09.111Z,84.38
2018-07-03T08:06:09.068Z,84.38
2018-07-03T08:07:09.092Z,84.38
2018-07-03T08:08:09.123Z,84.38
2018-07-03T08:09:09.152Z,84.38
2018-07-03T08:10:09.169Z,84.38
2018-07-03T08:11:09.198Z,90.00
2018-07-03T08:12:09.225Z,90.00
2018-07-03T08:13:09.250Z,90.00
2018-07-03T08:14:09.282Z,90.00
2018-07-03T08:15:09.310Z,90.00
2018-07-03T08:16:09.332Z,90.00
2018-07-03T08:17:09.357Z,84.38
2018-07-03T08:18:09.388Z,90.00
2018-07-03T08:19:09.433Z,84.38
2018-07-03T08:20:09.438Z,84.38
2018-07-03T08:21:09.464Z,84.38
2018-07-03T08:22:09.487Z,84.38
2018-07-03T08:23:09.516Z,78.75
2018-07-03T08:24:09.545Z,78.75
2018-07-03T08:25:09.567Z,90.00
2018-07-03T08:26:09.684Z,90.00
2018-07-03T08:27:09.623Z,90.00
2018-07-03T08:28:09.645Z,90.00
2018-07-03T08:29:09.671Z,90.00
2018-07-03T08:30:09.697Z,90.00
2018-07-03T08:31:09.725Z,90.00
2018-07-03T08:32:09.759Z,90.00
2018-07-03T08:33:09.776Z,90.00
2018-07-03T08:34:09.813Z,90.00
2018-07-03T08:35:09.826Z,90.00
2018-07-03T08:36:09.848Z,90.00
2018-07-03T08:37:09.875Z,90.00
2018-07-03T08:38:09.907Z,84.38
2018-07-03T08:39:09.929Z,84.38
2018-07-03T08:40:09.950Z,90.00
2018-07-03T08:41:09.984Z,90.00
2018-07-03T08:42:10.068Z,90.00
2018-07-03T08:43:10.033Z,90.00
2018-07-03T08:44:10.063Z,84.38
2018-07-03T08:45:10.090Z,90.00
2018-07-03T08:46:10.109Z,90.00
2018-07-03T08:47:10.134Z,90.00
2018-07-03T08:48:10.160Z,90.00
2018-07-03T08:49:10.187Z,84.38
2018-07-03T08:50:10.213Z,84.38
2018-07-03T08:51:10.234Z,84.38
2018-07-03T08:52:10.264Z,90.00
2018-07-03T08:53:10.288Z,90.00
2018-07-03T08:54:10.317Z,90.00
2018-07-03T08:55:10.383Z,90.00
2018-07-03T08:56:10.365Z,90.00
2018-07-03T08:57:10.394Z,90.00
2018-07-03T08:58:10.453Z,90.00
2018-07-03T08:59:10.456Z,90.00
2018-07-03T09:00:10.469Z,95.63
2018-07-03T09:01:10.495Z,95.63
2018-07-03T09:02:10.517Z,95.63
2018-07-03T09:03:10.542Z,95.63
2018-07-03T09:04:10.575Z,90.00
2018-07-03T09:05:10.604Z,90.00
2018-07-03T09:06:10.626Z,90.00
2018-07-03T09:07:10.645Z,90.00
2018-07-03T09:08:10.674Z,90.00
2018-07-03T09:09:10.696Z,84.38
2018-07-03T09:10:10.727Z,84.38
2018-07-03T09:11:10.755Z,84.38
2018-07-03T09:12:10.773Z,84.38
2018-07-03T09:13:10.844Z,84.38
2018-07-03T09:14:10.837Z,84.38
2018-07-03T09:15:10.855Z,84.38
2018-07-03T09:16:10.888Z,84.38
2018-07-03T09:17:10.913Z,84.38
2018-07-03T09:18:11.016Z,84.38
2018-07-03T09:19:10.987Z,84.38
2018-07-03T09:20:10.981Z,84.38
2018-07-03T09:21:11.009Z,84.38
2018-07-03T09:22:11.034Z,84.38
2018-07-03T09:23:11.053Z,84.38
2018-07-03T09:24:11.089Z,78.75
2018-07-03T09:25:11.107Z,78.75
2018-07-03T09:26:11.137Z,78.75
2018-07-03T09:27:11.162Z,84.38
2018-07-03T09:28:11.181Z,84.38
2018-07-03T09:29:11.210Z,84.38
2018-07-03T09:30:11.239Z,84.38
2018-07-03T09:31:11.259Z,84.38
2018-07-03T09:32:11.290Z,84.38
2018-07-03T09:33:11.313Z,84.38
2018-07-03T09:34:11.335Z,84.38
2018-07-03T09:35:11.359Z,84.38
2018-07-03T09:36:11.390Z,84.38
2018-07-03T09:37:11.414Z,84.38
2018-07-03T09:38:11.435Z,84.38
2018-07-03T09:39:11.484Z,84.38
2018-07-03T09:40:11.487Z,84.38
2018-07-03T09:41:11.518Z,84.38
2018-07-03T09:42:11.542Z,84.38
2018-07-03T09:43:11.570Z,84.38
2018-07-03T09:44:11.588Z,84.38
2018-07-03T09:45:11.613Z,84.38
2018-07-03T09:46:11.644Z,84.38
2018-07-03T09:47:11.670Z,84.38
2018-07-03T09:48:11.696Z,84.38
2018-07-03T09:49:11.719Z,84.38
2018-07-03T09:50:11.745Z,84.38
2018-07-03T09:51:11.768Z,84.38
2018-07-03T09:52:11.795Z,84.38
2018-07-03T09:53:11.822Z,84.38
2018-07-03T09:54:11.839Z,78.75
2018-07-03T09:55:11.869Z,78.75
2018-07-03T09:56:11.910Z,78.75
2018-07-03T09:57:11.917Z,78.75
2018-07-03T09:58:11.951Z,78.75
2018-07-03T09:59:11.971Z,78.75
2018-07-03T10:00:11.996Z,78.75
2018-07-03T10:01:12.022Z,78.75
2018-07-03T10:02:12.046Z,78.75
2018-07-03T10:03:12.193Z,78.75
2018-07-03T10:04:12.099Z,78.75
2018-07-03T10:05:12.127Z,78.75
2018-07-03T10:06:12.148Z,78.75
2018-07-03T10:07:12.172Z,78.75
2018-07-03T10:08:12.201Z,78.75
2018-07-03T10:09:12.223Z,78.75
2018-07-03T10:10:12.252Z,78.75
2018-07-03T10:11:12.271Z,78.75
2018-07-03T10:12:12.297Z,78.75
2018-07-03T10:13:12.318Z,78.75
2018-07-03T10:14:12.352Z,78.75
2018-07-03T10:15:12.379Z,78.75
2018-07-03T10:16:12.408Z,78.75
2018-07-03T10:17:12.424Z,78.75
2018-07-03T10:18:12.450Z,78.75
2018-07-03T10:19:12.479Z,78.75
2018-07-03T10:20:12.502Z,73.13
2018-07-03T10:21:12.527Z,73.13
2018-07-03T10:22:12.548Z,73.13
2018-07-03T10:23:12.593Z,73.13
2018-07-03T10:24:12.668Z,73.13
2018-07-03T10:25:12.633Z,73.13
2018-07-03T10:26:12.650Z,73.13
2018-07-03T10:27:12.675Z,73.13
2018-07-03T10:28:12.698Z,73.13
2018-07-03T10:29:12.723Z,73.13
2018-07-03T10:30:12.761Z,73.13
2018-07-03T10:31:12.788Z,73.13
2018-07-03T10:32:12.806Z,73.13
2018-07-03T10:33:12.828Z,73.13
2018-07-03T10:34:12.850Z,73.13
2018-07-03T10:35:12.877Z,73.13
2018-07-03T10:36:12.901Z,73.13
2018-07-03T10:37:12.927Z,73.13
2018-07-03T10:38:12.955Z,73.13
2018-07-03T10:39:12.983Z,73.13
2018-07-03T10:40:12.999Z,73.13
2018-07-03T10:41:13.079Z,73.13
2018-07-03T10:42:13.053Z,67.50
2018-07-03T10:43:13.095Z,67.50
2018-07-03T10:44:13.106Z,67.50
2018-07-03T10:45:13.130Z,67.50
2018-07-03T10:46:13.152Z,67.50
2018-07-03T10:47:13.179Z,61.88
2018-07-03T10:48:13.212Z,61.88
2018-07-03T10:49:13.232Z,61.88
2018-07-03T10:50:13.252Z,61.88
2018-07-03T10:51:13.277Z,61.88
2018-07-03T10:52:13.309Z,61.88
2018-07-03T10:53:13.329Z,61.88
2018-07-03T10:54:13.371Z,61.88
2018-07-03T10:55:13.389Z,73.13
2018-07-03T10:56:13.403Z,61.88
2018-07-03T10:57:13.434Z,61.88
2018-07-03T10:58:13.455Z,61.88
2018-07-03T10:59:13.482Z,67.50
2018-07-03T11:00:13.504Z,67.50
2018-07-03T11:01:13.529Z,73.13
2018-07-03T11:02:13.550Z,67.50
2018-07-03T11:03:13.576Z,73.13
2018-07-03T11:04:13.601Z,73.13
2018-07-03T11:05:13.627Z,67.50
2018-07-03T11:06:13.650Z,67.50
2018-07-03T11:07:13.674Z,67.50
2018-07-03T11:08:13.708Z,73.13
2018-07-03T11:09:13.727Z,67.50
2018-07-03T11:10:13.754Z,67.50
2018-07-03T11:11:13.781Z,67.50
2018-07-03T11:12:13.802Z,67.50
2018-07-03T11:13:13.824Z,67.50
2018-07-03T11:14:13.853Z,67.50
2018-07-03T11:15:13.878Z,67.50
2018-07-03T11:16:13.909Z,67.50
2018-07-03T11:17:13.932Z,67.50
2018-07-03T11:18:13.951Z,67.50
2018-07-03T11:19:13.976Z,67.50
2018-07-03T11:20:14.087Z,67.50
2018-07-03T11:21:14.030Z,67.50
2018-07-03T11:22:14.050Z,67.50
2018-07-03T11:23:14.078Z,67.50
2018-07-03T11:24:14.097Z,67.50
2018-07-03T11:25:14.125Z,67.50
2018-07-03T11:26:14.152Z,67.50
2018-07-03T11:27:14.181Z,67.50
2018-07-03T11:28:14.200Z,67.50
2018-07-03T11:29:14.232Z,67.50
2018-07-03T11:30:14.253Z,67.50
2018-07-03T11:31:14.281Z,67.50
2018-07-03T11:32:14.299Z,67.50
2018-07-03T11:33:14.319Z,67.50
2018-07-03T11:34:14.346Z,67.50
2018-07-03T11:35:14.371Z,67.50
2018-07-03T11:36:14.397Z,67.50
2018-07-03T11:37:14.450Z,67.50
2018-07-03T11:38:14.448Z,67.50
2018-07-03T11:39:14.472Z,67.50
2018-07-03T11:40:14.495Z,67.50
2018-07-03T11:41:14.520Z,67.50
2018-07-03T11:42:14.552Z,67.50
2018-07-03T11:43:14.609Z,67.50
2018-07-03T11:44:14.599Z,67.50
2018-07-03T11:45:14.620Z,67.50
2018-07-03T11:46:14.651Z,67.50
2018-07-03T11:47:14.676Z,67.50
2018-07-03T11:48:14.702Z,67.50
2018-07-03T11:49:14.723Z,67.50
2018-07-03T11:50:14.745Z,67.50
2018-07-03T11:51:14.771Z,56.25
2018-07-03T11:52:14.801Z,56.25
2018-07-03T11:53:14.859Z,56.25
2018-07-03T11:54:14.842Z,73.13
2018-07-03T11:55:14.875Z,84.38
2018-07-03T11:56:14.895Z,84.38
2018-07-03T11:57:14.923Z,78.75
2018-07-03T11:58:14.946Z,78.75
2018-07-03T11:59:14.976Z,78.75
2018-07-03T12:00:15.002Z,78.75
2018-07-03T12:01:15.015Z,73.13
2018-07-03T12:02:15.098Z,73.13
2018-07-03T12:03:15.073Z,73.13
2018-07-03T12:04:15.096Z,73.13
2018-07-03T12:05:15.120Z,67.50
2018-07-03T12:06:15.141Z,67.50
2018-07-03T12:07:15.165Z,67.50
2018-07-03T12:08:15.200Z,67.50
2018-07-03T12:09:15.224Z,67.50
2018-07-03T12:10:15.240Z,67.50
2018-07-03T12:11:15.309Z,67.50
2018-07-03T12:12:15.291Z,67.50
2018-07-03T12:13:15.313Z,67.50
2018-07-03T12:14:15.343Z,67.50
2018-07-03T12:15:15.367Z,67.50
2018-07-03T12:16:15.384Z,67.50
2018-07-03T12:17:15.424Z,67.50
2018-07-03T12:18:15.444Z,67.50
2018-07-03T12:19:15.468Z,67.50
2018-07-03T12:20:15.495Z,67.50
2018-07-03T12:21:15.516Z,67.50
2018-07-03T12:22:15.542Z,67.50
2018-07-03T12:23:15.566Z,67.50
2018-07-03T12:24:15.591Z,67.50
2018-07-03T12:25:15.622Z,67.50
2018-07-03T12:26:15.677Z,67.50
2018-07-03T12:27:15.671Z,67.50
2018-07-03T12:28:15.686Z,67.50
2018-07-03T12:29:15.763Z,67.50
2018-07-03T12:30:15.744Z,67.50
2018-07-03T12:31:16.775Z,67.50
2018-07-03T12:32:15.793Z,67.50
2018-07-03T12:33:15.810Z,67.50
2018-07-03T12:34:15.845Z,67.50
2018-07-03T12:35:15.857Z,67.50
2018-07-03T12:36:15.890Z,67.50
2018-07-03T12:37:15.914Z,67.50
2018-07-03T12:38:15.945Z,67.50
2018-07-03T12:39:15.966Z,67.50
2018-07-03T12:40:15.988Z,67.50
2018-07-03T12:41:16.011Z,67.50
2018-07-03T12:42:16.039Z,67.50
2018-07-03T12:43:16.068Z,61.88
2018-07-03T12:44:16.084Z,61.88
2018-07-03T12:45:16.107Z,56.25
2018-07-03T12:46:16.135Z,61.88
2018-07-03T12:47:16.159Z,67.50
2018-07-03T12:48:16.198Z,67.50
2018-07-03T12:49:16.248Z,67.50
2018-07-03T12:50:16.233Z,67.50
2018-07-03T12:51:16.281Z,67.50